sensor_id;sensor_type;location;lat;lon;timestamp;P1;durP1;ratioP1;P2;durP2;ratioP2
19482;SDS011;9882;51.166;6.992;2023-04-03T00:03:26;12.68;;;6.13;;
19482;SDS011;9882;51.166;6.992;2023-04-03T00:07:07;14.15;;;6.05;;
19482;SDS011;9882;51.166;6.992;2023-04-03T00:10:49;14.85;;;6.40;;
19482;SDS011;9882;51.166;6.992;2023-04-03T00:14:31;14.27;;;6.43;;
19482;SDS011;9882;51.166;6.992;2023-04-03T00:18:13;20.05;;;6.43;;
19482;SDS011;9882;51.166;6.992;2023-04-03T00:21:57;13.70;;;6.32;;
19482;SDS011;9882;51.166;6.992;2023-04-03T00:25:39;14.90;;;5.75;;
19482;SDS011;9882;51.166;6.992;2023-04-03T00:29:22;16.92;;;6.25;;
19482;SDS011;9882;51.166;6.992;2023-04-03T00:33:03;15.23;;;6.40;;
19482;SDS011;9882;51.166;6.992;2023-04-03T00:36:44;15.23;;;6.55;;
19482;SDS011;9882;51.166;6.992;2023-04-03T00:40:27;19.50;;;5.82;;
19482;SDS011;9882;51.166;6.992;2023-04-03T00:44:22;15.50;;;6.22;;
19482;SDS011;9882;51.166;6.992;2023-04-03T00:48:43;15.20;;;6.35;;
19482;SDS011;9882;51.166;6.992;2023-04-03T00:52:28;15.75;;;6.38;;
19482;SDS011;9882;51.166;6.992;2023-04-03T00:56:12;15.45;;;6.90;;
19482;SDS011;9882;51.166;6.992;2023-04-03T00:59:57;14.20;;;6.38;;
19482;SDS011;9882;51.166;6.992;2023-04-03T01:03:41;15.45;;;7.05;;
19482;SDS011;9882;51.166;6.992;2023-04-03T01:07:23;21.35;;;7.18;;
19482;SDS011;9882;51.166;6.992;2023-04-03T01:11:08;12.93;;;5.88;;
19482;SDS011;9882;51.166;6.992;2023-04-03T01:14:51;12.32;;;5.97;;
19482;SDS011;9882;51.166;6.992;2023-04-03T01:18:36;17.63;;;6.32;;
19482;SDS011;9882;51.166;6.992;2023-04-03T01:22:20;14.73;;;5.72;;
19482;SDS011;9882;51.166;6.992;2023-04-03T01:26:11;16.77;;;5.63;;
19482;SDS011;9882;51.166;6.992;2023-04-03T01:29:55;14.35;;;5.63;;
19482;SDS011;9882;51.166;6.992;2023-04-03T01:33:38;12.95;;;5.32;;
19482;SDS011;9882;51.166;6.992;2023-04-03T01:37:20;14.32;;;6.15;;
19482;SDS011;9882;51.166;6.992;2023-04-03T01:41:02;17.58;;;6.15;;
19482;SDS011;9882;51.166;6.992;2023-04-03T01:44:44;12.27;;;5.50;;
19482;SDS011;9882;51.166;6.992;2023-04-03T01:48:25;15.73;;;5.95;;
19482;SDS011;9882;51.166;6.992;2023-04-03T01:52:09;11.30;;;5.38;;
19482;SDS011;9882;51.166;6.992;2023-04-03T01:55:50;11.55;;;5.13;;
19482;SDS011;9882;51.166;6.992;2023-04-03T01:59:32;16.02;;;5.57;;
19482;SDS011;9882;51.166;6.992;2023-04-03T02:03:14;9.55;;;5.20;;
19482;SDS011;9882;51.166;6.992;2023-04-03T02:06:56;9.38;;;4.90;;
19482;SDS011;9882;51.166;6.992;2023-04-03T02:10:40;14.48;;;5.82;;
19482;SDS011;9882;51.166;6.992;2023-04-03T02:14:23;9.57;;;5.07;;
19482;SDS011;9882;51.166;6.992;2023-04-03T02:18:05;8.98;;;4.70;;
19482;SDS011;9882;51.166;6.992;2023-04-03T02:21:47;12.43;;;5.50;;
19482;SDS011;9882;51.166;6.992;2023-04-03T02:25:30;12.35;;;4.97;;
19482;SDS011;9882;51.166;6.992;2023-04-03T02:29:13;11.93;;;5.03;;
19482;SDS011;9882;51.166;6.992;2023-04-03T02:32:55;11.00;;;4.90;;
19482;SDS011;9882;51.166;6.992;2023-04-03T02:36:37;12.77;;;3.92;;
19482;SDS011;9882;51.166;6.992;2023-04-03T02:40:20;10.02;;;4.25;;
19482;SDS011;9882;51.166;6.992;2023-04-03T02:44:03;9.70;;;4.75;;
19482;SDS011;9882;51.166;6.992;2023-04-03T02:47:47;10.90;;;4.70;;
19482;SDS011;9882;51.166;6.992;2023-04-03T02:51:28;11.38;;;4.25;;
19482;SDS011;9882;51.166;6.992;2023-04-03T02:55:12;12.23;;;4.65;;
19482;SDS011;9882;51.166;6.992;2023-04-03T02:58:55;9.95;;;4.20;;
19482;SDS011;9882;51.166;6.992;2023-04-03T03:02:37;12.10;;;4.50;;
19482;SDS011;9882;51.166;6.992;2023-04-03T03:06:20;7.03;;;4.30;;
19482;SDS011;9882;51.166;6.992;2023-04-03T03:10:01;8.93;;;4.10;;
19482;SDS011;9882;51.166;6.992;2023-04-03T03:13:44;8.48;;;4.15;;
19482;SDS011;9882;51.166;6.992;2023-04-03T03:17:26;8.90;;;4.10;;
19482;SDS011;9882;51.166;6.992;2023-04-03T03:21:10;7.15;;;3.35;;
19482;SDS011;9882;51.166;6.992;2023-04-03T03:24:54;6.95;;;3.53;;
19482;SDS011;9882;51.166;6.992;2023-04-03T03:28:36;10.02;;;3.58;;
19482;SDS011;9882;51.166;6.992;2023-04-03T03:32:18;10.88;;;4.05;;
19482;SDS011;9882;51.166;6.992;2023-04-03T03:36:00;9.38;;;3.75;;
19482;SDS011;9882;51.166;6.992;2023-04-03T03:39:41;10.05;;;4.20;;
19482;SDS011;9882;51.166;6.992;2023-04-03T03:43:24;7.35;;;3.60;;
19482;SDS011;9882;51.166;6.992;2023-04-03T03:47:06;6.15;;;3.17;;
19482;SDS011;9882;51.166;6.992;2023-04-03T03:50:49;7.72;;;3.75;;
19482;SDS011;9882;51.166;6.992;2023-04-03T03:54:31;8.15;;;3.53;;
19482;SDS011;9882;51.166;6.992;2023-04-03T03:58:12;8.23;;;3.75;;
19482;SDS011;9882;51.166;6.992;2023-04-03T04:01:55;9.13;;;3.55;;
19482;SDS011;9882;51.166;6.992;2023-04-03T04:05:36;7.95;;;3.67;;
19482;SDS011;9882;51.166;6.992;2023-04-03T04:09:18;10.43;;;4.07;;
19482;SDS011;9882;51.166;6.992;2023-04-03T04:13:00;9.63;;;3.90;;
19482;SDS011;9882;51.166;6.992;2023-04-03T04:16:41;8.90;;;3.47;;
19482;SDS011;9882;51.166;6.992;2023-04-03T04:20:24;9.15;;;3.70;;
19482;SDS011;9882;51.166;6.992;2023-04-03T04:24:06;7.78;;;3.70;;
19482;SDS011;9882;51.166;6.992;2023-04-03T04:27:48;6.90;;;3.67;;
19482;SDS011;9882;51.166;6.992;2023-04-03T04:31:31;9.48;;;3.58;;
19482;SDS011;9882;51.166;6.992;2023-04-03T04:35:13;10.57;;;3.33;;
19482;SDS011;9882;51.166;6.992;2023-04-03T04:38:56;17.42;;;4.10;;
19482;SDS011;9882;51.166;6.992;2023-04-03T04:42:39;9.55;;;3.88;;
19482;SDS011;9882;51.166;6.992;2023-04-03T04:46:22;6.15;;;3.65;;
19482;SDS011;9882;51.166;6.992;2023-04-03T04:50:04;8.90;;;3.63;;
19482;SDS011;9882;51.166;6.992;2023-04-03T04:53:46;8.85;;;3.33;;
19482;SDS011;9882;51.166;6.992;2023-04-03T04:57:29;7.40;;;3.53;;
19482;SDS011;9882;51.166;6.992;2023-04-03T05:01:12;7.43;;;3.50;;
19482;SDS011;9882;51.166;6.992;2023-04-03T05:04:54;8.52;;;3.65;;
19482;SDS011;9882;51.166;6.992;2023-04-03T05:08:36;10.23;;;4.00;;
19482;SDS011;9882;51.166;6.992;2023-04-03T05:12:18;11.13;;;3.75;;
19482;SDS011;9882;51.166;6.992;2023-04-03T05:16:01;6.97;;;3.80;;
19482;SDS011;9882;51.166;6.992;2023-04-03T05:19:44;6.80;;;3.20;;
19482;SDS011;9882;51.166;6.992;2023-04-03T05:23:26;4.53;;;3.28;;
19482;SDS011;9882;51.166;6.992;2023-04-03T05:27:08;9.55;;;4.18;;
19482;SDS011;9882;51.166;6.992;2023-04-03T05:30:52;9.30;;;4.05;;
19482;SDS011;9882;51.166;6.992;2023-04-03T05:34:36;9.90;;;4.15;;
19482;SDS011;9882;51.166;6.992;2023-04-03T05:38:18;10.82;;;4.15;;
19482;SDS011;9882;51.166;6.992;2023-04-03T05:42:01;9.43;;;4.13;;
19482;SDS011;9882;51.166;6.992;2023-04-03T05:45:43;11.55;;;3.90;;
19482;SDS011;9882;51.166;6.992;2023-04-03T05:49:26;10.50;;;4.63;;
19482;SDS011;9882;51.166;6.992;2023-04-03T05:53:08;10.05;;;4.47;;
19482;SDS011;9882;51.166;6.992;2023-04-03T05:56:56;12.20;;;4.43;;
19482;SDS011;9882;51.166;6.992;2023-04-03T06:00:39;8.50;;;4.78;;
19482;SDS011;9882;51.166;6.992;2023-04-03T06:04:21;10.40;;;4.07;;
19482;SDS011;9882;51.166;6.992;2023-04-03T06:08:04;12.30;;;4.75;;
19482;SDS011;9882;51.166;6.992;2023-04-03T06:11:49;7.22;;;3.97;;
19482;SDS011;9882;51.166;6.992;2023-04-03T06:15:31;9.80;;;4.85;;
19482;SDS011;9882;51.166;6.992;2023-04-03T06:19:13;9.15;;;4.15;;
19482;SDS011;9882;51.166;6.992;2023-04-03T06:22:55;10.13;;;3.95;;
19482;SDS011;9882;51.166;6.992;2023-04-03T06:26:36;10.50;;;4.28;;
19482;SDS011;9882;51.166;6.992;2023-04-03T06:30:20;14.93;;;4.38;;
19482;SDS011;9882;51.166;6.992;2023-04-03T06:34:02;7.70;;;4.00;;
19482;SDS011;9882;51.166;6.992;2023-04-03T06:37:44;17.40;;;4.15;;
19482;SDS011;9882;51.166;6.992;2023-04-03T06:41:25;14.35;;;4.22;;
19482;SDS011;9882;51.166;6.992;2023-04-03T06:45:07;10.70;;;4.20;;
19482;SDS011;9882;51.166;6.992;2023-04-03T06:48:50;7.63;;;3.85;;
19482;SDS011;9882;51.166;6.992;2023-04-03T06:52:32;13.32;;;4.05;;
19482;SDS011;9882;51.166;6.992;2023-04-03T06:56:14;7.68;;;3.75;;
19482;SDS011;9882;51.166;6.992;2023-04-03T06:59:56;10.25;;;3.88;;
19482;SDS011;9882;51.166;6.992;2023-04-03T07:03:37;6.85;;;3.53;;
19482;SDS011;9882;51.166;6.992;2023-04-03T07:07:21;9.00;;;3.80;;
19482;SDS011;9882;51.166;6.992;2023-04-03T07:11:04;7.45;;;3.30;;
19482;SDS011;9882;51.166;6.992;2023-04-03T07:14:45;9.32;;;4.05;;
19482;SDS011;9882;51.166;6.992;2023-04-03T07:18:26;9.50;;;3.47;;
19482;SDS011;9882;51.166;6.992;2023-04-03T07:22:08;16.77;;;3.88;;
19482;SDS011;9882;51.166;6.992;2023-04-03T07:25:51;11.73;;;3.22;;
19482;SDS011;9882;51.166;6.992;2023-04-03T07:29:34;8.05;;;3.25;;
19482;SDS011;9882;51.166;6.992;2023-04-03T07:33:17;10.35;;;3.42;;
19482;SDS011;9882;51.166;6.992;2023-04-03T07:37:01;7.25;;;3.70;;
19482;SDS011;9882;51.166;6.992;2023-04-03T07:40:45;12.85;;;3.45;;
19482;SDS011;9882;51.166;6.992;2023-04-03T07:44:28;12.45;;;3.28;;
19482;SDS011;9882;51.166;6.992;2023-04-03T07:48:10;7.97;;;3.28;;
19482;SDS011;9882;51.166;6.992;2023-04-03T07:51:52;10.70;;;3.30;;
19482;SDS011;9882;51.166;6.992;2023-04-03T07:55:34;9.98;;;2.80;;
19482;SDS011;9882;51.166;6.992;2023-04-03T07:59:16;6.97;;;2.50;;
19482;SDS011;9882;51.166;6.992;2023-04-03T08:02:59;6.55;;;2.97;;
19482;SDS011;9882;51.166;6.992;2023-04-03T08:06:41;8.88;;;2.80;;
19482;SDS011;9882;51.166;6.992;2023-04-03T08:10:22;4.15;;;2.53;;
19482;SDS011;9882;51.166;6.992;2023-04-03T08:14:03;3.42;;;2.40;;
19482;SDS011;9882;51.166;6.992;2023-04-03T08:17:44;3.60;;;2.38;;
19482;SDS011;9882;51.166;6.992;2023-04-03T08:21:26;10.20;;;3.22;;
19482;SDS011;9882;51.166;6.992;2023-04-03T08:25:08;4.13;;;2.90;;
